KCRG

Jacksonville Executive at Craig Airport

Jacksonville, Florida, USA
METAR KCRG 161452Z 32009KT 10SM SCT015 07/03 A3019 RMK AO2 SLP224 T00670028 51016
Observed Flight Rules
Nov-16 @ 14:52 UTC (an hour ago) Visual Flight Rules
Wind Visibility Clouds
320° at 9 knots 10 miles
  • Scattered at 1,500' AGL
Temperatures Readings
Current 7°C / 45°F
Dewpoint 3°C / 37°F
Humidity 76%
Altimeter 30.19" Hg
Pressure 1022.4 hPa
Elevation 13
METAR KCRG 161452Z 32009KT 10SM SCT015 07/03 A3019 RMK AO2 SLP224 T00670028 51016
Observed Flight Rules
Nov-16 @ 14:52 UTC
(an hour ago)
VFR
Wind Visibility
320° at 9 knots 10 miles
Clouds
  • Scattered at 1,500' AGL
Temperature Dewpoint
7°C / 45°F 3°C / 37°F
Humidity Altimeter Pressure
76% 30.19" Hg 1022.4 hPa